Time;durP1;ratioP1;P1;durP2;ratioP2;P2;SDS_P1;SDS_P2;PMS_P1;PMS_P2;Temp;Humidity;BMP_temperature;BMP_pressure;BME280_temperature;BME280_humidity;BME280_pressure;Samples;Min_cycle;Max_cycle;Signal;HPM_P1;HPM_P2
2023/03/06 00:00:53;;;;;;;18.60;15.03;;;3.60;1.00;;;;;;4959448;28;20924;-68
2023/03/06 00:03:21;;;;;;;20.53;14.93;;;3.60;1.00;;;;;;4965027;28;20265;-67
2023/03/06 00:05:48;;;;;;;22.13;15.73;;;3.60;1.00;;;;;;4961876;28;20314;-67
2023/03/06 00:08:15;;;;;;;18.93;14.40;;;3.50;1.00;;;;;;4960831;28;20217;-66
2023/03/06 00:10:42;;;;;;;22.00;14.40;;;3.60;1.00;;;;;;4960025;28;20559;-66
2023/03/06 00:13:12;;;;;;;24.87;16.47;;;3.60;1.00;;;;;;4993349;28;20245;-67
2023/03/06 00:15:39;;;;;;;23.53;17.07;;;3.60;1.00;;;;;;4980798;28;20220;-67
2023/03/06 00:18:07;;;;;;;23.13;16.17;;;3.60;1.00;;;;;;4961855;28;20203;-67
2023/03/06 00:20:35;;;;;;;25.87;17.20;;;3.60;1.00;;;;;;4966949;28;20223;-67
2023/03/06 00:23:02;;;;;;;23.30;17.13;;;3.60;1.00;;;;;;4963010;28;20655;-67
2023/03/06 00:25:29;;;;;;;27.57;18.27;;;3.60;1.00;;;;;;4961760;28;20658;-67
2023/03/06 00:27:56;;;;;;;25.13;17.67;;;3.60;1.00;;;;;;4960803;28;20207;-66
2023/03/06 00:30:24;;;;;;;28.27;19.23;;;3.60;1.00;;;;;;4960884;28;20737;-65
2023/03/06 00:32:52;;;;;;;25.37;18.03;;;3.50;1.00;;;;;;4962432;28;20207;-66
2023/03/06 00:35:19;;;;;;;24.63;18.53;;;3.50;7.70;;;;;;4943911;28;20313;-70
2023/03/06 00:37:46;;;;;;;27.37;18.37;;;3.50;14.20;;;;;;4945723;28;20203;-66
2023/03/06 00:40:16;;;;;;;26.07;19.13;;;3.50;26.20;;;;;;4976621;28;20305;-66
2023/03/06 00:42:44;;;;;;;29.70;19.30;;;3.50;28.40;;;;;;4967977;28;20207;-66
2023/03/06 00:45:11;;;;;;;26.37;18.80;;;3.50;28.20;;;;;;4959362;28;20769;-67
2023/03/06 00:47:39;;;;;;;30.37;20.90;;;3.50;39.70;;;;;;4961233;28;20282;-66
2023/03/06 00:50:07;;;;;;;29.87;20.00;;;3.50;49.10;;;;;;4961131;28;20708;-66
2023/03/06 00:52:34;;;;;;;30.13;20.60;;;3.50;52.50;;;;;;4975121;28;20225;-64
2023/03/06 00:55:01;;;;;;;27.87;19.90;;;3.50;57.50;;;;;;4966444;28;20223;-68
2023/03/06 00:57:28;;;;;;;27.83;20.23;;;3.50;64.70;;;;;;4951441;28;20230;-66
2023/03/06 00:59:56;;;;;;;30.50;20.40;;;3.60;70.00;;;;;;4961080;28;20218;-66
2023/03/06 01:02:23;;;;;;;30.93;20.40;;;3.60;66.90;;;;;;4993772;28;20298;-66
2023/03/06 01:04:53;;;;;;;29.00;19.53;;;3.60;70.80;;;;;;4961736;28;20235;-66
2023/03/06 01:07:20;;;;;;;32.13;21.63;;;3.60;61.30;;;;;;4960872;28;20208;-66
2023/03/06 01:09:47;;;;;;;34.30;23.13;;;3.60;75.20;;;;;;4973970;28;20635;-65
2023/03/06 01:12:14;;;;;;;30.53;22.70;;;3.60;85.40;;;;;;4960341;28;20202;-65
2023/03/06 01:14:41;;;;;;;33.00;23.60;;;3.60;96.40;;;;;;4959509;28;20211;-67
2023/03/06 01:17:09;;;;;;;31.33;22.27;;;3.60;92.40;;;;;;4962410;28;20681;-66
2023/03/06 01:19:36;;;;;;;34.73;23.50;;;3.60;99.90;;;;;;4961553;28;20195;-66
2023/03/06 01:22:03;;;;;;;34.47;22.63;;;3.60;99.90;;;;;;4977401;28;20257;-65
2023/03/06 01:24:30;;;;;;;36.63;24.30;;;3.70;99.90;;;;;;4960690;28;20669;-67
2023/03/06 01:26:57;;;;;;;36.17;24.70;;;3.60;99.90;;;;;;4959552;28;20209;-67
2023/03/06 01:29:25;;;;;;;40.00;25.73;;;3.60;99.90;;;;;;4960004;28;20187;-66
2023/03/06 01:31:52;;;;;;;43.00;27.30;;;3.60;99.90;;;;;;4960061;28;20249;-67
2023/03/06 01:34:19;;;;;;;40.17;26.53;;;3.60;99.90;;;;;;4957984;28;20805;-66
2023/03/06 01:36:46;;;;;;;44.13;27.87;;;3.60;99.90;;;;;;4959195;28;20297;-68
2023/03/06 01:39:13;;;;;;;46.43;29.37;;;3.60;99.90;;;;;;4944166;28;20202;-66
2023/03/06 01:41:40;;;;;;;47.63;30.50;;;3.60;99.90;;;;;;4959753;28;20507;-68
2023/03/06 01:44:12;;;;;;;45.03;29.83;;;3.70;99.90;;;;;;4974635;28;20717;-66
2023/03/06 01:46:45;;;;;;;45.30;31.50;;;3.70;99.90;;;;;;4989174;28;20218;-69
2023/03/06 01:49:14;;;;;;;48.00;31.07;;;3.70;99.90;;;;;;4958885;28;20214;-66
2023/03/06 01:52:10;;;;;;;42.27;30.47;;;3.70;99.90;;;;;;4967645;28;20202;-69
2023/03/06 01:54:47;;;;;;;43.53;29.60;;;3.70;99.90;;;;;;4958386;28;20235;-67
2023/03/06 01:57:19;;;;;;;44.40;31.13;;;3.70;99.90;;;;;;4960177;28;20666;-65
2023/03/06 01:59:51;;;;;;;43.97;30.73;;;3.70;99.90;;;;;;4974714;28;20675;-66
2023/03/06 02:02:19;;;;;;;41.23;29.53;;;3.70;99.90;;;;;;4957806;28;20194;-66
2023/03/06 02:04:47;;;;;;;47.17;31.03;;;3.70;99.90;;;;;;5009990;22;20320;-59
2023/03/06 02:07:18;;;;;;;44.50;30.53;;;3.70;99.90;;;;;;4968089;28;20202;-60
2023/03/06 02:09:45;;;;;;;46.37;30.77;;;3.70;99.90;;;;;;4958141;28;20708;-60
2023/03/06 02:12:15;;;;;;;45.43;31.87;;;3.70;99.90;;;;;;4966568;28;20199;-60
2023/03/06 02:14:43;;;;;;;46.00;30.43;;;3.60;99.90;;;;;;4958279;28;20313;-60
2023/03/06 02:17:12;;;;;;;44.13;31.50;;;3.60;99.90;;;;;;4966923;28;20217;-60
2023/03/06 02:19:54;;;;;;;46.03;31.83;;;3.60;99.90;;;;;;4980787;28;20690;-60
2023/03/06 02:22:23;;;;;;;46.10;31.20;;;3.70;99.90;;;;;;4959065;28;20631;-59
2023/03/06 02:25:26;;;;;;;46.63;32.07;;;3.70;99.90;;;;;;4966139;28;20210;-60
2023/03/06 02:27:54;;;;;;;49.00;29.47;;;3.60;99.90;;;;;;4958629;28;20752;-60
2023/03/06 02:30:24;;;;;;;47.83;30.73;;;3.70;99.90;;;;;;4976616;28;20730;-60
2023/03/06 02:32:51;;;;;;;50.27;31.60;;;3.70;99.90;;;;;;4967612;28;20297;-60
2023/03/06 02:35:21;;;;;;;48.10;32.00;;;3.70;99.90;;;;;;4964793;28;20712;-61
2023/03/06 02:37:49;;;;;;;54.03;33.80;;;3.70;99.90;;;;;;4999142;28;20194;-60
2023/03/06 02:40:18;;;;;;;46.73;30.83;;;3.70;99.90;;;;;;4956932;28;20207;-61
2023/03/06 02:42:49;;;;;;;46.00;30.90;;;3.70;99.90;;;;;;4989648;28;20213;-61
2023/03/06 02:45:35;;;;;;;28.37;19.60;;;3.60;99.90;;;;;;4988549;28;20210;-61
2023/03/06 02:48:03;;;;;;;26.97;19.10;;;3.60;99.90;;;;;;4966024;28;20256;-60
2023/03/06 02:50:31;;;;;;;26.73;17.87;;;3.40;99.90;;;;;;4963577;28;21165;-60
2023/03/06 02:53:00;;;;;;;22.17;16.20;;;3.40;99.90;;;;;;4967211;28;20198;-60
2023/03/06 02:55:29;;;;;;;22.97;16.83;;;3.30;99.90;;;;;;4997760;28;20724;-64
2023/03/06 02:57:56;;;;;;;22.10;15.23;;;3.20;99.90;;;;;;4965352;28;20202;-62
2023/03/06 03:00:24;;;;;;;21.40;15.90;;;3.30;99.90;;;;;;4967716;28;20261;-61
2023/03/06 03:02:51;;;;;;;20.30;15.43;;;3.30;99.90;;;;;;4975709;28;20721;-63
2023/03/06 03:05:19;;;;;;;18.10;13.30;;;3.30;99.90;;;;;;4975949;28;20615;-59
2023/03/06 03:07:52;;;;;;;18.93;13.27;;;3.30;99.90;;;;;;4983886;28;20585;-61
2023/03/06 03:10:19;;;;;;;19.23;13.17;;;3.20;99.90;;;;;;4951199;28;20211;-61
2023/03/06 03:12:47;;;;;;;16.67;13.43;;;3.30;99.90;;;;;;4943441;28;20868;-62
2023/03/06 03:15:15;;;;;;;20.13;13.57;;;3.30;99.90;;;;;;4950032;28;20215;-64
2023/03/06 03:17:44;;;;;;;15.83;12.60;;;3.30;99.90;;;;;;4981245;28;21418;-62
2023/03/06 03:20:15;;;;;;;15.93;11.93;;;3.30;99.90;;;;;;4952253;29;20221;-67
2023/03/06 03:22:47;;;;;;;15.83;12.07;;;3.30;99.90;;;;;;4943127;29;20206;-66
2023/03/06 03:25:14;;;;;;;17.30;11.73;;;3.30;99.90;;;;;;4982833;28;20195;-67
2023/03/06 03:27:41;;;;;;;17.90;12.17;;;3.20;99.90;;;;;;4951984;29;20230;-66
2023/03/06 03:30:10;;;;;;;15.80;13.13;;;3.20;99.90;;;;;;4958265;28;20556;-66
2023/03/06 03:32:38;;;;;;;19.40;12.20;;;3.20;99.90;;;;;;4958415;28;20222;-64
2023/03/06 03:35:07;;;;;;;19.40;13.73;;;3.20;99.90;;;;;;4949562;29;20234;-67
2023/03/06 03:37:36;;;;;;;20.13;11.73;;;3.20;99.90;;;;;;4959378;28;20877;-65
2023/03/06 03:40:05;;;;;;;17.03;12.17;;;3.20;99.90;;;;;;4950272;29;20235;-66
2023/03/06 03:42:32;;;;;;;15.63;11.97;;;3.20;99.90;;;;;;4958652;28;20203;-66
2023/03/06 03:44:59;;;;;;;17.37;11.47;;;3.10;99.90;;;;;;4967852;28;20253;-66
2023/03/06 03:47:26;;;;;;;12.07;10.63;;;3.10;99.90;;;;;;4951020;28;20599;-65
2023/03/06 03:49:53;;;;;;;14.90;10.60;;;3.10;99.90;;;;;;4966298;28;20303;-67
2023/03/06 03:52:20;;;;;;;13.87;11.30;;;3.00;99.90;;;;;;4959231;28;20265;-67
2023/03/06 03:54:48;;;;;;;19.47;12.80;;;2.90;99.90;;;;;;4958232;28;20202;-66
2023/03/06 03:57:15;;;;;;;21.60;17.13;;;2.90;99.90;;;;;;4948995;29;20262;-66
2023/03/06 03:59:47;;;;;;;17.37;13.50;;;2.80;99.90;;;;;;4967511;28;20629;-68
2023/03/06 04:02:28;;;;;;;15.67;11.90;;;2.80;99.90;;;;;;4950992;28;20276;-65
2023/03/06 04:05:07;;;;;;;19.40;12.27;;;2.80;99.90;;;;;;4976933;28;20333;-68
2023/03/06 04:07:34;;;;;;;14.63;11.30;;;2.70;99.90;;;;;;4984726;28;20202;-65
2023/03/06 04:10:02;;;;;;;27.67;19.43;;;2.70;99.90;;;;;;5001029;28;20206;-67
2023/03/06 04:12:30;;;;;;;31.63;23.43;;;2.70;99.90;;;;;;4968962;28;20701;-67
2023/03/06 04:14:57;;;;;;;27.93;21.90;;;2.70;99.90;;;;;;4960518;28;20214;-63
2023/03/06 04:17:25;;;;;;;36.30;25.97;;;2.70;99.90;;;;;;4985741;28;20206;-65
2023/03/06 04:19:53;;;;;;;36.33;27.67;;;2.60;99.90;;;;;;4978284;28;20198;-66
2023/03/06 04:22:21;;;;;;;34.23;23.97;;;2.60;99.90;;;;;;4969491;28;20221;-64
2023/03/06 04:24:48;;;;;;;26.17;20.07;;;2.70;99.90;;;;;;4970249;28;20731;-66
2023/03/06 04:27:16;;;;;;;21.50;15.47;;;2.70;99.90;;;;;;4984467;28;20237;-66
2023/03/06 04:29:43;;;;;;;24.27;16.93;;;2.70;99.90;;;;;;4979928;28;20194;-63
2023/03/06 04:32:13;;;;;;;30.67;20.87;;;2.70;99.90;;;;;;4968633;28;20692;-64
2023/03/06 04:34:40;;;;;;;40.50;29.97;;;2.80;99.90;;;;;;4967193;28;20550;-64
2023/03/06 04:37:21;;;;;;;24.17;17.70;;;2.80;99.90;;;;;;4970038;28;20214;-66
2023/03/06 04:39:48;;;;;;;24.27;16.67;;;2.80;99.90;;;;;;4955593;28;20206;-65
2023/03/06 04:42:18;;;;;;;18.87;15.00;;;2.60;99.90;;;;;;4949397;28;20201;-65
2023/03/06 04:44:45;;;;;;;26.13;17.00;;;2.60;99.90;;;;;;4987298;28;20230;-66
2023/03/06 04:47:13;;;;;;;32.17;24.50;;;2.60;99.90;;;;;;5002714;28;20202;-64
2023/03/06 04:49:44;;;;;;;35.10;23.33;;;2.60;99.90;;;;;;4970418;28;20273;-64
2023/03/06 04:52:14;;;;;;;21.20;16.33;;;2.60;99.90;;;;;;4977222;28;20301;-65
2023/03/06 04:54:41;;;;;;;29.90;21.57;;;2.60;99.90;;;;;;4975832;28;20215;-66
2023/03/06 04:57:09;;;;;;;24.73;18.70;;;2.60;99.90;;;;;;4969880;28;20217;-63
2023/03/06 04:59:36;;;;;;;20.87;15.83;;;2.60;99.90;;;;;;4967930;28;20194;-65
2023/03/06 05:02:05;;;;;;;21.07;15.23;;;2.60;99.90;;;;;;4985135;28;20222;-65
2023/03/06 05:04:31;;;;;;;27.00;18.27;;;2.50;99.90;;;;;;4963067;28;20635;-64
2023/03/06 05:06:58;;;;;;;22.20;16.53;;;2.50;99.90;;;;;;4981402;28;20202;-64
2023/03/06 05:09:25;;;;;;;22.07;15.93;;;2.50;99.90;;;;;;4950504;29;20257;-64
2023/03/06 05:11:52;;;;;;;19.90;15.30;;;2.40;99.90;;;;;;4950056;29;20195;-64
2023/03/06 05:14:19;;;;;;;20.83;16.07;;;2.50;99.90;;;;;;4949524;28;20601;-64
2023/03/06 05:16:46;;;;;;;22.50;16.67;;;2.50;99.90;;;;;;4950547;29;20767;-62
2023/03/06 05:19:13;;;;;;;25.27;16.67;;;2.40;99.90;;;;;;4948703;29;20642;-64
2023/03/06 05:21:41;;;;;;;22.17;16.20;;;2.30;99.90;;;;;;4950308;28;20224;-63
2023/03/06 05:24:08;;;;;;;23.50;16.03;;;2.30;99.90;;;;;;4964767;28;20202;-64
2023/03/06 05:26:35;;;;;;;23.27;16.27;;;2.30;99.90;;;;;;4964288;28;20206;-63
2023/03/06 05:29:02;;;;;;;22.13;17.00;;;2.40;99.90;;;;;;4949628;28;20234;-64
2023/03/06 05:31:29;;;;;;;25.60;16.47;;;2.40;99.90;;;;;;4950544;29;20543;-64
2023/03/06 05:33:57;;;;;;;23.20;17.40;;;2.50;99.90;;;;;;4965970;28;20207;-66
2023/03/06 05:36:24;;;;;;;22.93;16.83;;;2.40;99.90;;;;;;4947916;28;20220;-62
2023/03/06 05:38:51;;;;;;;23.30;16.53;;;2.40;99.90;;;;;;4950273;29;20674;-64
2023/03/06 05:41:18;;;;;;;23.27;18.53;;;2.40;99.90;;;;;;4955258;28;20191;-65
2023/03/06 05:43:46;;;;;;;22.47;16.53;;;2.40;99.90;;;;;;4968558;28;20217;-66
2023/03/06 05:46:13;;;;;;;22.20;16.63;;;2.40;99.90;;;;;;4951494;28;20206;-65
2023/03/06 05:48:40;;;;;;;25.77;19.37;;;2.40;99.90;;;;;;4964796;28;20701;-65
2023/03/06 05:51:08;;;;;;;28.37;20.07;;;2.30;99.90;;;;;;4953743;28;20219;-65
2023/03/06 05:53:35;;;;;;;36.00;26.07;;;2.30;99.90;;;;;;4958510;28;20230;-65
2023/03/06 05:56:05;;;;;;;40.17;28.93;;;2.20;99.90;;;;;;4950239;29;20273;-59
2023/03/06 05:58:33;;;;;;;26.47;20.77;;;2.20;99.90;;;;;;4963169;28;20245;-60
2023/03/06 06:01:06;;;;;;;32.13;22.50;;;2.20;99.90;;;;;;4947201;29;20615;-60
2023/03/06 06:03:33;;;;;;;27.17;16.57;;;2.20;99.90;;;;;;4952367;28;20215;-59
2023/03/06 06:06:08;;;;;;;23.03;17.23;;;2.20;99.90;;;;;;4988740;28;20684;-58
2023/03/06 06:08:36;;;;;;;22.33;16.30;;;2.10;99.90;;;;;;4987557;28;20971;-58
2023/03/06 06:11:07;;;;;;;24.00;16.73;;;2.10;99.90;;;;;;4984324;28;20276;-57
2023/03/06 06:13:35;;;;;;;19.83;14.60;;;2.10;99.90;;;;;;4983076;28;20221;-61
2023/03/06 06:16:14;;;;;;;20.30;13.80;;;2.10;99.90;;;;;;4980464;28;20251;-60
2023/03/06 06:18:42;;;;;;;19.73;12.70;;;2.10;99.90;;;;;;4984560;28;20190;-57
2023/03/06 06:21:12;;;;;;;19.30;14.70;;;2.10;99.90;;;;;;4986649;28;20611;-57
2023/03/06 06:23:39;;;;;;;20.93;13.70;;;2.10;99.90;;;;;;4986354;28;20192;-60
2023/03/06 06:26:08;;;;;;;18.47;13.23;;;2.10;99.90;;;;;;4988125;28;20231;-57
2023/03/06 06:28:35;;;;;;;19.87;13.77;;;2.20;99.90;;;;;;4984392;28;20205;-59
2023/03/06 06:31:11;;;;;;;22.20;15.97;;;2.20;99.90;;;;;;5001894;28;20218;-57
2023/03/06 06:33:39;;;;;;;22.83;16.57;;;2.30;99.90;;;;;;4987663;28;20208;-57
2023/03/06 06:36:15;;;;;;;21.20;14.30;;;2.30;99.90;;;;;;4989688;28;20777;-57
2023/03/06 06:38:42;;;;;;;20.40;15.83;;;2.40;99.90;;;;;;4986056;28;20211;-59
2023/03/06 06:41:09;;;;;;;22.73;16.53;;;2.50;99.90;;;;;;4990932;28;20842;-58
2023/03/06 06:43:56;;;;;;;20.63;14.93;;;2.60;99.90;;;;;;4990679;28;20657;-58
2023/03/06 06:46:26;;;;;;;20.67;13.67;;;2.70;99.90;;;;;;4991648;28;20866;-65
2023/03/06 06:49:13;;;;;;;22.73;16.33;;;2.80;99.90;;;;;;4991048;28;20660;-58
2023/03/06 06:51:40;;;;;;;17.80;13.27;;;2.90;99.90;;;;;;4988949;28;20198;-59
2023/03/06 06:54:08;;;;;;;24.87;15.83;;;3.00;99.40;;;;;;4989816;28;20201;-58
2023/03/06 06:56:35;;;;;;;16.87;12.57;;;3.00;64.60;;;;;;4973522;28;20308;-59
2023/03/06 06:59:03;;;;;;;20.50;14.47;;;3.10;47.40;;;;;;4989989;28;20201;-59
2023/03/06 07:01:42;;;;;;;20.23;13.53;;;3.20;44.00;;;;;;4983744;28;20197;-58
2023/03/06 07:04:12;;;;;;;17.53;13.60;;;3.20;8.40;;;;;;4989373;28;20283;-61
2023/03/06 07:06:40;;;;;;;18.80;13.53;;;3.30;1.60;;;;;;4989911;28;20202;-62
2023/03/06 07:09:07;;;;;;;21.97;12.37;;;3.30;1.00;;;;;;4982480;28;20323;-57
2023/03/06 07:11:35;;;;;;;16.97;13.57;;;3.30;1.00;;;;;;4982823;28;20249;-60
2023/03/06 07:14:02;;;;;;;17.80;14.27;;;3.40;1.00;;;;;;4965301;28;20672;-59
2023/03/06 07:16:29;;;;;;;21.33;14.40;;;3.30;1.00;;;;;;4989488;28;20296;-60
2023/03/06 07:18:56;;;;;;;21.73;14.30;;;3.40;1.00;;;;;;4988886;28;20773;-60
2023/03/06 07:21:23;;;;;;;18.90;12.20;;;3.40;1.00;;;;;;4990735;28;20265;-59
2023/03/06 07:23:50;;;;;;;18.43;12.90;;;3.50;1.00;;;;;;4990697;28;20630;-59
2023/03/06 07:26:17;;;;;;;18.13;11.83;;;3.60;1.00;;;;;;5003289;28;20205;-58
2023/03/06 07:28:44;;;;;;;13.73;11.20;;;3.60;1.00;;;;;;4984810;28;20278;-60
2023/03/06 07:31:24;;;;;;;13.70;10.37;;;3.80;1.00;;;;;;4974385;28;20196;-59
2023/03/06 07:33:53;;;;;;;13.63;10.33;;;3.80;1.00;;;;;;4989733;28;20205;-59
2023/03/06 07:36:21;;;;;;;15.13;10.73;;;3.90;1.00;;;;;;4973204;28;20742;-59
2023/03/06 07:38:49;;;;;;;17.33;11.03;;;4.00;1.00;;;;;;4973534;28;20202;-58
2023/03/06 07:41:17;;;;;;;16.07;10.90;;;4.10;1.00;;;;;;4989631;28;20644;-62
2023/03/06 07:43:49;;;;;;;13.20;9.93;;;4.10;1.00;;;;;;4987634;28;20274;-58
2023/03/06 07:46:16;;;;;;;16.37;10.97;;;4.10;1.00;;;;;;4972252;28;20500;-59
2023/03/06 07:48:43;;;;;;;15.33;11.37;;;4.10;1.00;;;;;;4966687;28;20248;-58
2023/03/06 07:51:19;;;;;;;14.90;11.03;;;3.90;1.00;;;;;;4987054;28;20284;-59
2023/03/06 07:53:48;;;;;;;18.70;13.10;;;3.90;1.00;;;;;;4990678;28;20208;-58
2023/03/06 07:56:15;;;;;;;19.97;13.77;;;3.80;1.00;;;;;;4988860;28;20297;-58
2023/03/06 07:58:43;;;;;;;21.27;14.30;;;3.70;1.00;;;;;;4989633;28;20206;-59
2023/03/06 08:01:16;;;;;;;23.60;15.27;;;3.80;1.00;;;;;;5004972;28;20557;-59
2023/03/06 08:03:43;;;;;;;25.70;18.27;;;3.80;1.00;;;;;;4989521;28;20618;-58
2023/03/06 08:06:12;;;;;;;26.13;18.23;;;3.80;1.00;;;;;;4971390;28;20693;-59
2023/03/06 08:08:41;;;;;;;27.17;19.70;;;3.80;1.00;;;;;;4989698;28;20205;-60
2023/03/06 08:11:10;;;;;;;28.83;19.90;;;3.80;1.00;;;;;;5004114;28;20243;-58
2023/03/06 08:13:37;;;;;;;31.90;21.00;;;3.90;1.00;;;;;;4984805;28;20657;-59
2023/03/06 08:16:05;;;;;;;33.77;22.07;;;4.10;1.00;;;;;;4969141;28;20673;-60
2023/03/06 08:18:33;;;;;;;31.83;21.20;;;4.10;1.00;;;;;;4980683;28;20220;-59
2023/03/06 08:21:01;;;;;;;34.30;22.17;;;4.20;1.00;;;;;;4987992;28;20281;-58
2023/03/06 08:23:28;;;;;;;29.33;21.33;;;4.10;1.00;;;;;;4989196;28;20758;-59
2023/03/06 08:26:00;;;;;;;34.33;23.03;;;4.00;1.00;;;;;;4970891;28;21111;-59
2023/03/06 08:28:27;;;;;;;34.20;23.20;;;3.80;1.00;;;;;;4989002;28;20550;-59
2023/03/06 08:30:56;;;;;;;40.07;25.73;;;3.70;1.00;;;;;;4981181;28;20753;-61
2023/03/06 08:33:23;;;;;;;40.67;26.07;;;3.70;1.00;;;;;;4985523;28;20316;-59
2023/03/06 08:35:51;;;;;;;35.80;24.97;;;3.50;1.00;;;;;;4988052;28;20236;-59
2023/03/06 08:38:18;;;;;;;41.63;25.67;;;3.50;1.00;;;;;;4988546;28;20186;-58
2023/03/06 08:40:45;;;;;;;41.03;27.03;;;3.60;8.50;;;;;;4964449;28;20700;-59
2023/03/06 08:43:13;;;;;;;39.07;25.93;;;3.60;1.00;;;;;;4987978;28;20289;-59
2023/03/06 08:45:40;;;;;;;38.10;26.00;;;3.70;1.00;;;;;;4987358;28;20197;-59
2023/03/06 08:48:07;;;;;;;36.70;23.90;;;3.80;1.00;;;;;;4970185;28;20209;-59
2023/03/06 08:50:34;;;;;;;37.60;24.33;;;3.80;1.00;;;;;;4986641;28;20288;-58
2023/03/06 08:53:01;;;;;;;39.73;23.40;;;3.70;1.00;;;;;;4970287;28;20202;-59
2023/03/06 08:55:28;;;;;;;38.03;24.80;;;3.80;1.00;;;;;;4987433;28;20206;-58
2023/03/06 08:57:57;;;;;;;37.57;22.90;;;3.70;1.00;;;;;;4986389;28;20311;-58
2023/03/06 09:00:24;;;;;;;38.47;24.17;;;3.70;1.00;;;;;;4985016;28;20201;-59
2023/03/06 09:02:51;;;;;;;36.70;24.30;;;3.70;1.00;;;;;;4969920;28;20214;-57
2023/03/06 09:05:21;;;;;;;39.60;24.63;;;3.70;1.00;;;;;;4985735;28;20288;-59
2023/03/06 09:07:48;;;;;;;39.57;24.23;;;3.80;1.00;;;;;;4979621;28;20297;-58
2023/03/06 09:10:18;;;;;;;39.63;25.23;;;3.70;1.00;;;;;;4986362;28;20202;-57
2023/03/06 09:12:45;;;;;;;42.43;25.63;;;3.80;1.00;;;;;;4985853;28;20201;-59
2023/03/06 09:15:21;;;;;;;44.67;27.83;;;3.70;6.70;;;;;;4989053;28;20266;-63
2023/03/06 09:17:48;;;;;;;40.83;26.80;;;3.60;52.90;;;;;;4984013;28;20867;-57
2023/03/06 09:20:16;;;;;;;45.83;26.60;;;3.50;99.80;;;;;;4967480;28;20205;-60
2023/03/06 09:22:44;;;;;;;44.60;26.63;;;3.60;99.90;;;;;;4985598;28;20232;-60
2023/03/06 09:25:12;;;;;;;42.77;26.27;;;3.60;99.90;;;;;;4984022;28;20572;-61
2023/03/06 09:27:40;;;;;;;47.47;28.93;;;3.70;99.90;;;;;;4977359;28;20214;-58
2023/03/06 09:30:08;;;;;;;52.50;30.80;;;3.60;99.90;;;;;;4978305;28;20209;-58
2023/03/06 09:32:35;;;;;;;51.63;31.73;;;3.50;99.90;;;;;;4985696;28;20213;-59
2023/03/06 09:35:02;;;;;;;46.83;27.53;;;3.50;99.90;;;;;;4986947;28;20194;-59
2023/03/06 09:37:29;;;;;;;47.90;28.40;;;3.40;99.90;;;;;;4970131;28;20256;-61
2023/03/06 09:39:56;;;;;;;45.37;28.53;;;3.40;99.90;;;;;;4983313;28;20661;-60
2023/03/06 09:42:24;;;;;;;47.30;28.30;;;3.40;99.90;;;;;;4971015;28;20604;-59
2023/03/06 09:45:02;;;;;;;49.80;28.93;;;3.40;99.90;;;;;;5004034;28;20201;-58
2023/03/06 09:47:54;;;;;;;48.30;28.13;;;3.30;99.90;;;;;;4968570;28;20336;-59
2023/03/06 09:50:37;;;;;;;49.47;28.93;;;3.30;99.90;;;;;;4984964;28;20220;-58
2023/03/06 09:53:10;;;;;;;54.37;31.33;;;3.40;99.90;;;;;;4977812;28;20239;-59
2023/03/06 09:55:39;;;;;;;49.73;30.60;;;3.40;99.90;;;;;;4986180;28;20280;-59
2023/03/06 09:58:24;;;;;;;54.93;32.93;;;3.30;99.90;;;;;;4969038;28;20836;-58
2023/03/06 10:01:16;;;;;;;55.83;32.77;;;3.40;99.90;;;;;;4988487;28;20304;-58
2023/03/06 10:03:54;;;;;;;52.97;32.13;;;3.40;99.90;;;;;;4985777;28;20234;-58
2023/03/06 10:06:28;;;;;;;60.00;33.60;;;3.40;99.90;;;;;;4986788;28;20229;-59
2023/03/06 10:08:58;;;;;;;64.27;39.50;;;3.40;99.90;;;;;;4977540;28;20189;-59
2023/03/06 10:11:31;;;;;;;56.40;32.10;;;3.40;99.90;;;;;;4986653;28;20728;-58
2023/03/06 10:14:12;;;;;;;56.77;37.03;;;3.60;99.90;;;;;;4985490;28;20273;-60
2023/03/06 10:16:40;;;;;;;55.60;34.53;;;3.90;99.90;;;;;;4988108;28;20245;-58
2023/03/06 10:19:16;;;;;;;48.67;31.03;;;4.20;99.90;;;;;;4977712;28;20292;-58
2023/03/06 10:22:05;;;;;;;52.53;31.30;;;4.20;99.90;;;;;;4986761;28;20217;-59
2023/03/06 10:25:12;;;;;;;45.47;28.50;;;4.00;99.90;;;;;;4988583;28;20189;-61
2023/03/06 10:28:10;;;;;;;39.33;25.50;;;3.90;99.90;;;;;;4975606;28;20632;-58
2023/03/06 10:30:57;;;;;;;33.30;21.90;;;3.90;99.90;;;;;;4983757;28;20228;-57
2023/03/06 10:33:50;;;;;;;30.33;20.90;;;4.20;99.90;;;;;;4970089;28;20272;-58
2023/03/06 10:36:18;;;;;;;29.93;21.93;;;4.80;99.90;;;;;;4985267;28;20234;-57
2023/03/06 10:38:47;;;;;;;27.40;19.67;;;7.10;99.90;;;;;;4987500;28;20297;-57
2023/03/06 10:41:27;;;;;;;23.73;16.57;;;8.90;1.00;;;;;;4999182;28;21208;-58
2023/03/06 10:44:00;;;;;;;24.27;17.70;;;9.30;1.00;;;;;;4985713;28;20213;-59
2023/03/06 10:46:35;;;;;;;22.03;16.60;;;8.70;1.00;;;;;;4988235;28;20197;-60
2023/03/06 10:49:05;;;;;;;22.93;17.70;;;7.70;1.00;;;;;;4968358;28;20235;-61
2023/03/06 10:51:34;;;;;;;25.37;17.83;;;7.40;1.00;;;;;;4986854;28;20300;-59
2023/03/06 10:54:23;;;;;;;19.10;14.70;;;7.30;1.00;;;;;;4970259;28;20273;-60
2023/03/06 10:56:49;;;;;;;18.53;13.40;;;7.20;1.00;;;;;;4966604;28;20344;-60
2023/03/06 10:59:27;;;;;;;18.30;13.03;;;7.00;1.00;;;;;;4966110;28;20190;-60
2023/03/06 11:01:57;;;;;;;16.23;11.50;;;6.80;1.00;;;;;;4983385;28;20289;-61
2023/03/06 11:04:29;;;;;;;19.07;13.93;;;6.60;1.00;;;;;;4983757;28;20221;-61
2023/03/06 11:07:17;;;;;;;12.67;10.27;;;6.60;1.00;;;;;;4984124;28;20197;-60
2023/03/06 11:09:56;;;;;;;16.97;10.63;;;7.10;1.00;;;;;;4986046;28;20198;-60
2023/03/06 11:12:38;;;;;;;11.47;9.17;;;6.90;1.00;;;;;;4964061;28;20867;-61
2023/03/06 11:15:31;;;;;;;14.40;9.70;;;6.50;1.00;;;;;;4980343;28;20272;-60
2023/03/06 11:17:58;;;;;;;12.63;9.60;;;5.90;1.00;;;;;;4981083;28;20643;-60
2023/03/06 11:20:30;;;;;;;12.50;9.27;;;5.60;1.00;;;;;;4983148;28;20193;-60
2023/03/06 11:23:53;;;;;;;14.77;9.90;;;5.50;1.00;;;;;;4987519;28;20193;-60
2023/03/06 11:26:50;;;;;;;16.40;11.13;;;5.20;1.00;;;;;;5002281;28;20225;-59
2023/03/06 11:29:33;;;;;;;14.93;11.37;;;5.10;1.00;;;;;;5002031;28;20318;-60
2023/03/06 11:32:13;;;;;;;14.00;8.83;;;5.30;1.00;;;;;;5004236;28;20292;-61
2023/03/06 11:34:49;;;;;;;11.43;7.93;;;5.50;1.00;;;;;;4986307;28;20189;-59
2023/03/06 11:37:31;;;;;;;11.80;8.47;;;5.40;1.00;;;;;;4988947;28;20292;-58
2023/03/06 11:40:04;;;;;;;15.47;9.27;;;5.40;1.00;;;;;;4979811;28;20304;-59
2023/03/06 11:42:34;;;;;;;13.50;10.03;;;5.40;1.00;;;;;;4985760;28;20578;-61
2023/03/06 11:45:27;;;;;;;13.47;9.97;;;5.50;1.00;;;;;;4969445;28;20260;-60
2023/03/06 11:48:19;;;;;;;15.77;11.43;;;5.40;1.00;;;;;;4980052;28;20275;-61
2023/03/06 11:50:52;;;;;;;19.87;12.93;;;5.40;1.00;;;;;;4985521;28;20200;-60
2023/03/06 11:53:25;;;;;;;18.60;12.90;;;5.30;1.00;;;;;;4987208;28;20197;-61
2023/03/06 11:56:29;;;;;;;17.13;13.00;;;4.90;1.00;;;;;;4986980;28;20276;-58
2023/03/06 11:59:35;;;;;;;18.50;12.97;;;4.70;1.00;;;;;;4986430;28;20665;-61
2023/03/06 12:02:41;;;;;;;12.93;9.13;;;4.70;1.00;;;;;;4988260;28;20197;-64
2023/03/06 12:05:40;;;;;;;12.03;8.83;;;4.60;1.00;;;;;;4986165;28;20237;-59
2023/03/06 12:08:44;;;;;;;16.30;9.43;;;4.60;1.00;;;;;;4966831;28;20241;-59
2023/03/06 12:11:23;;;;;;;11.90;8.77;;;4.40;1.00;;;;;;4986090;28;20198;-59
2023/03/06 12:14:16;;;;;;;14.13;9.80;;;4.30;1.00;;;;;;4985529;28;20212;-59
2023/03/06 12:17:08;;;;;;;12.70;9.63;;;4.30;1.00;;;;;;4962468;28;20866;-59
2023/03/06 12:19:53;;;;;;;12.77;9.13;;;4.20;1.00;;;;;;4968735;28;20221;-61
2023/03/06 12:22:23;;;;;;;11.97;9.07;;;4.20;1.00;;;;;;4986558;28;20210;-59
2023/03/06 12:25:16;;;;;;;9.23;7.63;;;4.10;1.00;;;;;;4987360;28;20276;-59
2023/03/06 12:27:50;;;;;;;12.20;8.73;;;4.10;1.00;;;;;;4985890;28;20229;-60
2023/03/06 12:30:53;;;;;;;12.07;8.93;;;3.90;1.00;;;;;;4977571;28;20202;-59
2023/03/06 12:33:24;;;;;;;18.33;10.40;;;4.00;1.00;;;;;;4969110;28;20291;-60
2023/03/06 12:36:15;;;;;;;13.50;10.03;;;4.00;12.20;;;;;;4987714;28;20690;-59
2023/03/06 12:39:00;;;;;;;10.73;8.67;;;4.00;35.00;;;;;;4984741;28;20963;-58
2023/03/06 12:41:36;;;;;;;11.53;10.00;;;4.20;55.50;;;;;;4985859;28;20695;-59
2023/03/06 12:44:18;;;;;;;14.43;9.70;;;4.20;37.70;;;;;;4967765;28;20189;-59
2023/03/06 12:47:14;;;;;;;13.07;10.03;;;4.30;63.00;;;;;;4984114;28;20200;-58
2023/03/06 12:49:47;;;;;;;14.70;10.33;;;4.40;54.80;;;;;;4983421;28;20218;-59
2023/03/06 12:52:21;;;;;;;12.97;9.90;;;4.50;58.10;;;;;;4985058;28;20213;-59
2023/03/06 12:54:58;;;;;;;14.13;9.50;;;4.50;42.50;;;;;;4994227;28;20209;-57
2023/03/06 12:57:25;;;;;;;13.50;10.20;;;4.40;10.30;;;;;;4983747;28;20760;-59
2023/03/06 12:59:53;;;;;;;10.90;9.70;;;4.40;43.40;;;;;;4970662;28;20190;-60
2023/03/06 13:03:02;;;;;;;12.83;9.97;;;4.40;41.60;;;;;;4988645;28;20202;-59
2023/03/06 13:05:35;;;;;;;14.10;10.93;;;4.30;37.00;;;;;;4946150;28;20222;-60